Saint Louis, Missouri
Traffic Map
Current Weather Conditions
Saint Louis, Missouri
Overcast
Overcast
60°
Feels Like: 60°
Wind Chill: 60° Ceiling: 3500
Heat Index: 60° Visibility: 10mi
Dew Point: 45° Wind: 17mph
Humidity: 57% Direction: 200° (SSW)
Pressure: 30.04in Gusts: 28mph
Raw Report DataKCPS 221753Z 20015G24KT 10SM OVC035 16/07 A3004 RMK AO2 SLP172 T01560072 10161 20061 58024
Traffic Incident Summary
Active as of:
Severity:
Category:
InformationThere was an issue retrieving the traffic information for this location. Please try a different location or try again shortly.
Advertisements
Track Severe Weather on mobile